createdAt,value
2023-04-29T03:58:32.257Z,49.48
2023-04-29T03:59:32.206Z,49.68
2023-04-29T04:00:32.206Z,49.48
2023-04-29T04:01:32.242Z,49.58
2023-04-29T04:02:32.270Z,49.77
2023-04-29T04:03:32.320Z,49.87
2023-04-29T04:04:32.459Z,49.58
2023-04-29T04:05:32.163Z,50.25
2023-04-29T04:06:32.153Z,49.96
2023-04-29T04:07:32.146Z,49.77
2023-04-29T04:08:32.156Z,50.35
2023-04-29T04:09:32.134Z,50.25
2023-04-29T04:10:32.147Z,49.68
2023-04-29T04:11:32.122Z,49.87
2023-04-29T04:12:32.116Z,49.96
2023-04-29T04:13:32.120Z,49.68
2023-04-29T04:14:32.130Z,49.87
2023-04-29T04:15:32.107Z,49.87
2023-04-29T04:16:32.157Z,50.45
2023-04-29T04:17:32.133Z,50.35
2023-04-29T04:18:32.109Z,50.06
2023-04-29T04:19:32.080Z,50.25
2023-04-29T04:20:32.083Z,49.96
2023-04-29T04:21:32.093Z,50.06
2023-04-29T04:22:32.074Z,50.35
2023-04-29T04:23:32.094Z,50.35
2023-04-29T04:24:32.082Z,50.18
2023-04-29T04:25:32.061Z,50.18
2023-04-29T04:26:32.062Z,50.09
2023-04-29T04:27:32.061Z,50.37
2023-04-29T04:28:32.065Z,50.37
2023-04-29T04:29:32.072Z,50.18
2023-04-29T04:30:32.066Z,50.09
2023-04-29T04:31:32.107Z,50.09
2023-04-29T04:32:32.063Z,50.09
2023-04-29T04:33:32.059Z,50.37
2023-04-29T04:34:32.036Z,50.09
2023-04-29T04:35:32.029Z,50.09
2023-04-29T04:36:32.037Z,50.37
2023-04-29T04:37:32.018Z,50.18
2023-04-29T04:38:32.043Z,50.09
2023-04-29T04:39:32.022Z,50.09
2023-04-29T04:40:32.019Z,50.18
2023-04-29T04:41:32.024Z,50.18
2023-04-29T04:42:32.000Z,50.18
2023-04-29T04:43:32.006Z,49.99
2023-04-29T04:44:31.986Z,49.99
2023-04-29T04:45:32.030Z,50.09
2023-04-29T04:46:32.028Z,49.89
2023-04-29T04:47:32.029Z,50.18
2023-04-29T04:48:32.005Z,49.89
2023-04-29T04:49:31.975Z,50.27
2023-04-29T04:50:31.970Z,50.09
2023-04-29T04:51:31.980Z,50.27
2023-04-29T04:52:31.985Z,49.89
2023-04-29T04:53:31.968Z,50.37
2023-04-29T04:54:31.958Z,49.99
2023-04-29T04:55:31.964Z,50.21
2023-04-29T04:56:31.971Z,49.79
2023-04-29T04:57:31.975Z,50.40
2023-04-29T04:58:31.938Z,49.99
2023-04-29T04:59:31.937Z,50.21
2023-04-29T05:00:31.952Z,50.01
2023-04-29T05:01:31.997Z,49.99
2023-04-29T05:02:32.127Z,50.11
2023-04-29T05:03:32.069Z,50.40
2023-04-29T05:04:32.065Z,50.21
2023-04-29T05:05:31.913Z,50.11
2023-04-29T05:06:31.935Z,50.40
2023-04-29T05:07:31.914Z,50.69
2023-04-29T05:08:31.932Z,50.40
2023-04-29T05:09:31.889Z,50.21
2023-04-29T05:10:31.912Z,49.91
2023-04-29T05:11:31.912Z,50.01
2023-04-29T05:12:31.922Z,50.01
2023-04-29T05:13:31.882Z,49.82
2023-04-29T05:14:31.889Z,50.01
2023-04-29T05:15:31.890Z,49.91
2023-04-29T05:16:31.914Z,50.21
2023-04-29T05:17:31.939Z,50.01
2023-04-29T05:18:31.903Z,49.82
2023-04-29T05:19:31.892Z,50.30
2023-04-29T05:20:31.872Z,50.40
2023-04-29T05:21:31.906Z,50.30
2023-04-29T05:22:31.880Z,49.82
2023-04-29T05:23:31.854Z,50.40
2023-04-29T05:24:31.850Z,49.73
2023-04-29T05:25:31.998Z,50.40
2023-04-29T05:26:31.853Z,50.01
2023-04-29T05:27:31.868Z,50.30
2023-04-29T05:28:31.833Z,49.73
2023-04-29T05:29:31.843Z,50.21
2023-04-29T05:30:31.836Z,50.21
2023-04-29T05:31:31.852Z,50.21
2023-04-29T05:32:31.915Z,50.01
2023-04-29T05:33:31.819Z,50.01
2023-04-29T05:34:31.844Z,50.40
2023-04-29T05:35:31.833Z,50.40
2023-04-29T05:36:31.806Z,50.49
2023-04-29T05:37:31.824Z,50.49
2023-04-29T05:38:31.806Z,50.49
2023-04-29T05:39:31.835Z,50.49
2023-04-29T05:40:31.791Z,49.91
2023-04-29T05:41:31.791Z,50.49
2023-04-29T05:42:31.778Z,50.49
2023-04-29T05:43:33.081Z,50.49
2023-04-29T05:44:31.768Z,49.91
2023-04-29T05:45:31.785Z,50.01
2023-04-29T05:46:31.880Z,50.01
2023-04-29T05:47:31.841Z,50.04
2023-04-29T05:48:31.762Z,50.01
2023-04-29T05:49:31.766Z,50.01
2023-04-29T05:50:31.785Z,50.04
2023-04-29T05:51:31.754Z,50.04
2023-04-29T05:52:31.762Z,50.04
2023-04-29T05:53:31.750Z,50.23
2023-04-29T05:54:31.759Z,50.32
2023-04-29T05:55:31.730Z,50.04
2023-04-29T05:56:31.760Z,50.13
2023-04-29T05:57:31.743Z,49.84
2023-04-29T05:58:31.742Z,50.04
2023-04-29T05:59:31.759Z,49.65
2023-04-29T06:00:31.847Z,50.13
2023-04-29T06:01:31.745Z,49.84
2023-04-29T06:02:31.803Z,50.04
2023-04-29T06:03:31.917Z,49.84
2023-04-29T06:04:31.911Z,49.94
2023-04-29T06:05:32.053Z,50.04
2023-04-29T06:06:31.846Z,50.04
2023-04-29T06:07:31.710Z,50.04
2023-04-29T06:08:31.710Z,49.94
2023-04-29T06:09:31.716Z,49.65
2023-04-29T06:10:31.705Z,50.04
2023-04-29T06:11:31.679Z,50.04
2023-04-29T06:12:31.688Z,49.84
2023-04-29T06:13:31.690Z,49.75
2023-04-29T06:14:31.685Z,49.65
2023-04-29T06:15:31.674Z,49.84
2023-04-29T06:16:31.780Z,50.04
2023-04-29T06:17:31.701Z,49.94
2023-04-29T06:18:31.678Z,49.84
2023-04-29T06:19:31.666Z,49.75
2023-04-29T06:20:31.651Z,49.55
2023-04-29T06:21:31.658Z,49.84
2023-04-29T06:22:31.701Z,49.84
2023-04-29T06:23:31.665Z,49.75
2023-04-29T06:24:31.686Z,49.65
2023-04-29T06:25:31.641Z,49.55
2023-04-29T06:26:31.633Z,50.04
2023-04-29T06:27:31.634Z,49.37
2023-04-29T06:28:31.640Z,50.04
2023-04-29T06:29:31.639Z,49.65
2023-04-29T06:30:31.716Z,49.58
2023-04-29T06:31:31.658Z,49.55
2023-04-29T06:32:31.682Z,49.55
2023-04-29T06:33:31.637Z,49.94
2023-04-29T06:34:31.606Z,49.77
2023-04-29T06:35:31.617Z,49.55
2023-04-29T06:36:31.593Z,49.77
2023-04-29T06:37:31.598Z,49.65
2023-04-29T06:38:31.632Z,49.65
2023-04-29T06:39:31.598Z,49.75
2023-04-29T06:40:31.592Z,49.77
2023-04-29T06:41:31.608Z,49.68
2023-04-29T06:42:31.603Z,49.75
2023-04-29T06:43:31.611Z,49.48
2023-04-29T06:44:31.586Z,49.48
2023-04-29T06:45:31.584Z,49.48
2023-04-29T06:46:31.631Z,49.58
2023-04-29T06:47:31.618Z,49.68
2023-04-29T06:48:31.564Z,49.68
2023-04-29T06:49:31.569Z,49.68
2023-04-29T06:50:31.580Z,49.58
2023-04-29T06:51:31.551Z,49.77
2023-04-29T06:52:31.561Z,49.77
2023-04-29T06:53:31.561Z,49.77
2023-04-29T06:54:31.563Z,49.58
2023-04-29T06:55:31.559Z,49.68
2023-04-29T06:56:31.551Z,49.87
2023-04-29T06:57:31.589Z,49.39
2023-04-29T06:58:31.561Z,49.87
2023-04-29T06:59:31.553Z,49.29
2023-04-29T07:00:31.537Z,49.29
2023-04-29T07:01:31.676Z,49.48
2023-04-29T07:02:31.683Z,49.58
2023-04-29T07:03:31.629Z,49.48
2023-04-29T07:04:31.529Z,49.39
2023-04-29T07:05:31.522Z,49.39
2023-04-29T07:06:31.528Z,49.48
2023-04-29T07:07:31.507Z,49.39
2023-04-29T07:08:31.509Z,49.68
2023-04-29T07:10:31.511Z,49.58
2023-04-29T07:11:31.522Z,49.58
2023-04-29T07:12:31.512Z,49.29
2023-04-29T07:13:31.514Z,49.77
2023-04-29T07:14:31.509Z,49.19
2023-04-29T07:15:31.488Z,49.77
2023-04-29T07:16:31.526Z,49.19
2023-04-29T07:17:31.568Z,49.19
2023-04-29T07:18:31.483Z,49.22
2023-04-29T07:19:31.488Z,49.48
2023-04-29T07:20:31.492Z,49.19
2023-04-29T07:21:31.470Z,49.70
2023-04-29T07:22:31.472Z,49.60
2023-04-29T07:23:31.472Z,49.22
2023-04-29T07:24:31.494Z,49.41
2023-04-29T07:25:31.475Z,49.41
2023-04-29T07:26:31.469Z,49.22
2023-04-29T07:27:31.500Z,49.22
2023-04-29T07:28:31.447Z,49.32
2023-04-29T07:29:31.531Z,49.41
2023-04-29T07:30:31.468Z,49.51
2023-04-29T07:31:31.698Z,49.02
2023-04-29T07:32:31.498Z,49.22
2023-04-29T07:33:31.442Z,49.41
2023-04-29T07:35:31.454Z,49.41
2023-04-29T10:12:57.437Z,47.14
2023-04-29T10:13:57.375Z,47.14
2023-04-29T10:14:57.401Z,47.24
2023-04-29T10:15:57.444Z,47.24
2023-04-29T10:16:57.409Z,47.14
2023-04-29T10:17:57.358Z,47.24
2023-04-29T10:18:57.502Z,47.33
2023-04-29T10:19:57.361Z,47.33
2023-04-29T10:20:57.360Z,47.33
2023-04-29T10:21:57.356Z,47.33
2023-04-29T10:22:57.383Z,47.33
2023-04-29T10:23:57.352Z,47.33
2023-04-29T10:24:57.342Z,47.33
2023-04-29T10:25:57.352Z,47.33
2023-04-29T10:26:57.359Z,47.33
2023-04-29T10:27:57.352Z,47.33
2023-04-29T10:28:57.500Z,47.24
2023-04-29T10:29:57.352Z,47.33
2023-04-29T10:30:57.397Z,47.33
2023-04-29T10:31:57.342Z,47.26
2023-04-29T10:32:57.852Z,47.36
2023-04-29T10:33:57.348Z,47.36
2023-04-29T10:34:57.339Z,47.26
2023-04-29T10:35:57.333Z,47.26
2023-04-29T10:36:57.339Z,47.26
2023-04-29T10:37:57.343Z,47.36
2023-04-29T10:38:57.348Z,47.36
2023-04-29T10:39:57.336Z,47.26
2023-04-29T10:40:57.348Z,47.36
2023-04-29T10:41:57.353Z,47.26
2023-04-29T10:42:57.351Z,47.26
2023-04-29T10:43:57.346Z,47.36
2023-04-29T10:44:57.340Z,47.16
2023-04-29T10:45:57.325Z,47.36
2023-04-29T10:46:57.437Z,47.28
2023-04-29T10:47:57.366Z,47.38
2023-04-29T10:48:57.339Z,47.28
2023-04-29T10:49:57.326Z,47.09
2023-04-29T10:50:57.334Z,47.28
2023-04-29T10:51:57.334Z,47.38
2023-04-29T10:52:57.335Z,47.28
2023-04-29T10:53:57.333Z,47.38
2023-04-29T10:54:57.349Z,47.30
2023-04-29T10:55:57.356Z,47.40
2023-04-29T10:56:57.337Z,47.30
2023-04-29T10:57:57.389Z,47.30
2023-04-29T10:58:57.332Z,47.40
2023-04-29T10:59:57.343Z,47.11
2023-04-29T11:00:57.403Z,46.92
2023-04-29T11:01:57.330Z,46.94
2023-04-29T11:02:57.494Z,46.92
2023-04-29T11:03:57.482Z,46.92
2023-04-29T11:04:57.444Z,46.92
2023-04-29T11:05:57.370Z,46.92
2023-04-29T11:06:57.361Z,46.94
2023-04-29T11:07:57.358Z,47.20
2023-04-29T11:08:57.403Z,47.20
2023-04-29T11:09:57.351Z,46.92
2023-04-29T11:10:57.359Z,47.11
2023-04-29T11:11:57.361Z,47.02
2023-04-29T11:12:57.346Z,47.11
2023-04-29T11:13:57.365Z,46.82
2023-04-29T11:14:57.376Z,46.82
2023-04-29T11:15:57.426Z,46.92
2023-04-29T11:16:57.556Z,47.11
2023-04-29T11:17:57.493Z,46.72
2023-04-29T11:18:57.353Z,46.82
2023-04-29T11:19:57.628Z,46.92
2023-04-29T11:20:57.352Z,46.45
2023-04-29T11:21:57.350Z,46.84
2023-04-29T11:22:57.384Z,47.13
2023-04-29T11:23:57.376Z,46.94
2023-04-29T11:24:57.995Z,46.55
2023-04-29T11:25:57.359Z,47.25
2023-04-29T11:26:57.353Z,46.86
2023-04-29T11:27:57.361Z,46.67
2023-04-29T11:28:57.361Z,46.96
2023-04-29T11:29:57.375Z,46.77
2023-04-29T11:30:57.415Z,46.58
2023-04-29T11:31:57.461Z,46.48
2023-04-29T11:32:57.567Z,46.58
2023-04-29T11:33:57.387Z,46.19
2023-04-29T11:34:57.380Z,46.58
2023-04-29T11:35:57.364Z,46.96
2023-04-29T11:36:57.360Z,46.67
2023-04-29T11:37:57.374Z,46.77
2023-04-29T11:38:57.369Z,46.84
2023-04-29T11:39:57.386Z,46.48
2023-04-29T11:40:57.376Z,46.65
2023-04-29T11:41:57.374Z,46.55
2023-04-29T11:42:57.372Z,46.55
2023-04-29T11:43:57.372Z,46.65
2023-04-29T11:44:57.383Z,46.94
2023-04-29T11:45:57.430Z,46.45
2023-04-29T11:46:57.377Z,46.65
2023-04-29T11:47:57.415Z,46.72
2023-04-29T11:48:57.399Z,46.53
2023-04-29T11:49:57.444Z,46.53
2023-04-29T11:50:57.407Z,46.43
2023-04-29T11:51:57.396Z,46.62
2023-04-29T11:52:57.368Z,46.43
2023-04-29T11:53:57.367Z,46.62
2023-04-29T11:54:57.382Z,46.53
2023-04-29T11:55:57.382Z,46.62
2023-04-29T11:56:57.385Z,46.72
2023-04-29T11:57:57.399Z,46.62
2023-04-29T11:58:57.372Z,46.72
2023-04-29T11:59:57.381Z,46.70
2023-04-29T12:00:57.398Z,46.70
2023-04-29T12:01:57.378Z,46.41
2023-04-29T12:02:57.591Z,46.80
2023-04-29T12:03:57.609Z,46.41
2023-04-29T12:04:57.980Z,46.60
2023-04-29T12:05:57.409Z,46.51
2023-04-29T12:06:57.373Z,46.51
2023-04-29T12:07:57.415Z,46.51
2023-04-29T12:08:57.375Z,46.22
2023-04-29T12:09:57.366Z,46.41
2023-04-29T12:10:57.409Z,46.51
2023-04-29T12:11:57.393Z,46.60
2023-04-29T12:12:57.385Z,46.70
2023-04-29T12:13:57.368Z,46.80
2023-04-29T12:14:57.380Z,46.60
2023-04-29T12:15:57.398Z,46.29
2023-04-29T12:16:57.373Z,46.67
2023-04-29T12:17:57.382Z,46.09
2023-04-29T12:18:57.365Z,46.39
2023-04-29T12:19:57.379Z,46.48
2023-04-29T12:20:57.410Z,46.09
2023-04-29T12:21:57.373Z,46.39
2023-04-29T12:22:57.396Z,46.48
2023-04-29T12:23:57.369Z,46.29
2023-04-29T12:24:57.366Z,46.09
2023-04-29T12:25:57.378Z,46.58
2023-04-29T12:26:57.384Z,46.29
2023-04-29T12:27:57.386Z,46.19
2023-04-29T12:28:57.361Z,46.58
2023-04-29T12:29:57.373Z,46.60
2023-04-29T12:30:57.364Z,46.51
2023-04-29T12:31:57.478Z,46.70
2023-04-29T12:32:57.520Z,45.92
2023-04-29T12:33:57.370Z,46.99
2023-04-29T12:34:57.372Z,46.51
2023-04-29T12:35:57.359Z,46.31
2023-04-29T12:36:57.387Z,45.92
2023-04-29T12:37:57.386Z,46.60
2023-04-29T12:38:57.352Z,46.60
2023-04-29T12:39:57.363Z,46.60
2023-04-29T12:40:57.374Z,46.51
2023-04-29T12:41:57.363Z,46.22
2023-04-29T12:42:57.351Z,46.58
2023-04-29T12:43:57.357Z,46.19
2023-04-29T12:44:57.585Z,46.58
2023-04-29T12:45:57.368Z,46.39
2023-04-29T12:46:58.639Z,46.29
2023-04-29T12:47:57.461Z,46.39
2023-04-29T12:48:57.366Z,46.48
2023-04-29T12:49:57.367Z,46.58
2023-04-29T12:50:57.380Z,46.67
2023-04-29T12:51:57.340Z,46.48
2023-04-29T12:52:57.413Z,46.48
2023-04-29T12:53:57.516Z,46.48
2023-04-29T12:54:57.559Z,46.36
2023-04-29T12:55:57.358Z,46.58
2023-04-29T12:56:57.393Z,46.56
2023-04-29T12:57:59.100Z,46.48
2023-04-29T12:58:58.030Z,46.46
2023-04-29T12:59:57.339Z,46.36
2023-04-29T13:00:57.655Z,46.56
2023-04-29T13:01:57.538Z,46.56
2023-04-29T13:02:57.471Z,46.36
2023-04-29T13:03:57.447Z,47.04
2023-04-29T13:04:57.806Z,46.56
2023-04-29T13:05:57.351Z,46.84
2023-04-29T13:06:57.327Z,47.14
2023-04-29T13:07:57.330Z,47.02
2023-04-29T13:08:57.343Z,46.83
2023-04-29T13:09:57.367Z,46.92
2023-04-29T13:10:57.358Z,46.83
2023-04-29T13:11:57.323Z,46.83
2023-04-29T13:12:57.378Z,46.73
2023-04-29T13:13:57.451Z,46.73
2023-04-29T13:14:58.145Z,47.11
2023-04-29T13:15:57.420Z,46.73
2023-04-29T13:16:57.416Z,46.53
2023-04-29T13:17:57.366Z,46.83
2023-04-29T13:21:29.842Z,46.92
2023-04-29T13:22:29.856Z,46.73
2023-04-29T13:23:29.852Z,46.56
2023-04-29T13:24:29.890Z,46.67
2023-04-29T13:25:29.850Z,46.00
2023-04-29T13:26:29.830Z,46.02
2023-04-29T13:27:29.847Z,46.48
2023-04-29T13:28:29.820Z,45.90
2023-04-29T13:29:29.855Z,46.19
2023-04-29T13:30:29.858Z,46.67
2023-04-29T13:31:30.023Z,46.58
2023-04-29T13:32:42.248Z,46.39
2023-04-29T13:33:29.854Z,46.51
2023-04-29T13:34:29.827Z,46.58
2023-04-29T13:35:29.838Z,46.51
2023-04-29T13:36:29.822Z,46.02
2023-04-29T13:37:29.890Z,46.60
2023-04-29T13:38:29.856Z,46.51
2023-04-29T13:39:29.844Z,46.51
2023-04-29T13:40:30.851Z,46.70
2023-04-29T13:41:34.349Z,45.95
2023-04-29T13:42:29.828Z,45.75
2023-04-29T13:43:37.603Z,45.95
2023-04-29T13:44:36.144Z,45.68
2023-04-29T13:45:30.542Z,45.97
2023-04-29T13:46:31.530Z,45.78
2023-04-29T13:47:31.368Z,45.68
2023-04-29T13:49:08.118Z,45.80
2023-04-29T13:50:03.333Z,45.80
2023-04-29T13:51:53.732Z,44.95
2023-04-29T13:53:18.206Z,45.53
2023-04-29T13:53:46.503Z,45.26
2023-04-29T13:57:18.670Z,44.89
2023-04-29T13:58:29.806Z,44.92
2023-04-29T13:58:43.500Z,44.24
2023-04-29T13:59:42.085Z,44.35
2023-04-29T14:00:47.131Z,44.18
2023-04-29T14:02:30.140Z,43.71
2023-04-29T14:03:31.479Z,44.10
2023-04-29T14:04:29.951Z,44.01
2023-04-29T14:05:30.012Z,43.57
2023-04-29T14:06:29.874Z,43.47
2023-04-29T14:07:29.872Z,43.27
2023-04-29T14:08:29.987Z,43.37
2023-04-29T14:09:29.863Z,43.47
2023-04-29T14:10:29.879Z,43.76
2023-04-29T14:11:29.872Z,43.37
2023-04-29T14:12:29.907Z,43.39
2023-04-29T14:13:29.874Z,43.29
2023-04-29T14:14:29.876Z,43.22
2023-04-29T14:15:29.874Z,43.39
2023-04-29T14:16:29.951Z,43.47
2023-04-29T14:17:29.945Z,43.85
2023-04-29T14:18:29.901Z,43.57
2023-04-29T14:19:29.912Z,44.05
2023-04-29T14:20:29.907Z,43.64
2023-04-29T14:21:29.935Z,43.93
2023-04-29T14:22:29.902Z,43.93
2023-04-29T14:23:29.921Z,44.49
2023-04-29T14:24:29.939Z,43.74
2023-04-29T14:25:31.484Z,43.84
2023-04-29T14:26:29.954Z,43.74
2023-04-29T14:27:29.924Z,44.01
2023-04-29T14:28:29.945Z,43.81
2023-04-29T14:29:29.984Z,43.91
2023-04-29T14:30:29.925Z,43.99
2023-04-29T14:31:30.010Z,44.18
2023-04-29T14:32:29.921Z,44.09
2023-04-29T14:33:29.928Z,44.16
2023-04-29T14:34:29.926Z,44.45
2023-04-29T14:35:29.931Z,43.96
2023-04-29T14:36:29.973Z,44.06
2023-04-29T14:37:29.972Z,44.16
2023-04-29T14:38:29.953Z,43.96
2023-04-29T14:39:29.945Z,44.43
2023-04-29T14:40:29.945Z,44.43
2023-04-29T14:41:29.969Z,44.33
2023-04-29T14:42:29.980Z,44.41
2023-04-29T14:43:29.970Z,44.60
2023-04-29T14:44:29.969Z,44.60
2023-04-29T14:45:29.972Z,44.87
2023-04-29T14:46:29.964Z,44.87
2023-04-29T14:47:30.000Z,45.07
2023-04-29T14:48:29.961Z,44.95
2023-04-29T14:49:31.655Z,44.95
2023-04-29T14:50:29.956Z,44.95
2023-04-29T14:51:29.945Z,44.85
2023-04-29T14:52:29.956Z,44.83
2023-04-29T14:53:29.960Z,44.73
2023-04-29T14:54:29.974Z,44.83
2023-04-29T14:55:31.298Z,44.81
2023-04-29T14:56:29.955Z,44.71
2023-04-29T14:57:29.984Z,45.10
2023-04-29T14:58:29.954Z,44.98
2023-04-29T14:59:29.949Z,45.47
2023-04-29T15:00:29.990Z,45.47
2023-04-29T15:01:32.039Z,44.88
2023-04-29T15:02:29.979Z,45.37
2023-04-29T15:03:30.059Z,45.37
2023-04-29T15:04:30.050Z,44.96
2023-04-29T15:05:29.978Z,45.44
2023-04-29T15:06:30.062Z,45.44
2023-04-29T15:07:31.738Z,45.44
2023-04-29T15:08:29.956Z,45.73
2023-04-29T15:09:29.978Z,45.73
2023-04-29T15:10:29.952Z,45.71
2023-04-29T15:11:29.952Z,45.61
2023-04-29T15:12:29.982Z,45.51
2023-04-29T15:13:30.222Z,45.81
2023-04-29T15:14:29.954Z,45.42
2023-04-29T15:15:29.973Z,45.61
2023-04-29T15:16:30.107Z,45.59
2023-04-29T15:17:29.992Z,45.59
2023-04-29T15:18:29.946Z,45.78
2023-04-29T15:19:29.935Z,45.49
2023-04-29T15:20:29.973Z,45.88
2023-04-29T15:21:29.944Z,45.88
2023-04-29T15:22:29.933Z,45.98
2023-04-29T15:23:29.959Z,46.05
2023-04-29T15:24:29.953Z,46.15
2023-04-29T15:25:29.955Z,46.44
2023-04-29T15:26:29.934Z,46.44
2023-04-29T15:27:30.001Z,45.95
2023-04-29T15:28:29.929Z,45.86
2023-04-29T15:29:29.916Z,45.66
2023-04-29T15:30:29.946Z,45.76
2023-04-29T15:31:30.897Z,45.83
2023-04-29T15:32:29.929Z,45.83
2023-04-29T15:33:29.916Z,45.93
2023-04-29T15:34:30.024Z,46.03
2023-04-29T15:35:29.931Z,46.03
2023-04-29T15:36:29.914Z,46.51
2023-04-29T15:37:29.920Z,46.51
2023-04-29T15:38:29.925Z,46.51
2023-04-29T15:39:29.933Z,46.61
2023-04-29T15:40:29.914Z,46.51
2023-04-29T15:41:29.913Z,46.12
2023-04-29T15:42:29.930Z,46.51
2023-04-29T15:43:29.920Z,46.00
2023-04-29T15:44:29.961Z,46.39
2023-04-29T15:45:29.954Z,46.49
2023-04-29T15:46:29.902Z,46.39
2023-04-29T15:47:29.957Z,46.49
2023-04-29T15:48:29.928Z,46.49
2023-04-29T15:49:29.903Z,46.58
2023-04-29T15:50:29.907Z,46.58
2023-04-29T15:51:29.894Z,46.58
2023-04-29T15:52:29.887Z,46.49
2023-04-29T15:53:29.886Z,46.30
2023-04-29T15:54:29.909Z,46.30
2023-04-29T15:55:29.884Z,46.47
2023-04-29T15:56:29.868Z,46.20
2023-04-29T15:57:29.873Z,46.85
2023-04-29T15:58:29.875Z,46.56
2023-04-29T15:59:29.885Z,46.47
2023-04-29T16:00:29.884Z,46.17
2023-04-29T16:12:06.387Z,45.96
2023-04-29T16:13:06.340Z,46.25
2023-04-29T16:14:06.335Z,46.25
2023-04-29T16:15:06.317Z,46.54
2023-04-29T16:16:06.448Z,46.44
2023-04-29T16:17:06.399Z,46.44
2023-04-29T16:18:06.358Z,46.34
2023-04-29T16:19:06.334Z,46.15
2023-04-29T16:20:06.310Z,46.44
2023-04-29T16:21:06.320Z,46.44
2023-04-29T16:22:06.294Z,46.54
2023-04-29T16:23:06.296Z,46.44
2023-04-29T16:24:06.289Z,46.34
2023-04-29T16:25:06.295Z,46.83
2023-04-29T16:26:06.291Z,46.83
2023-04-29T16:27:06.278Z,47.02
2023-04-29T16:28:06.295Z,46.73
2023-04-29T16:29:06.292Z,46.83
2023-04-29T16:30:06.264Z,46.73
2023-04-29T16:31:06.291Z,46.92
2023-04-29T16:32:06.280Z,46.73
2023-04-29T16:33:06.280Z,46.73
2023-04-29T16:34:06.262Z,46.73
2023-04-29T16:35:06.256Z,46.83
2023-04-29T16:36:06.361Z,46.83
2023-04-29T16:37:06.273Z,46.90
2023-04-29T16:38:06.255Z,46.90
2023-04-29T16:39:06.270Z,46.83
2023-04-29T16:40:06.239Z,47.00
2023-04-29T16:41:06.260Z,46.73
2023-04-29T16:42:06.262Z,47.00
2023-04-29T16:43:06.446Z,47.22
2023-04-29T16:44:06.265Z,46.71
2023-04-29T16:45:06.261Z,46.90
2023-04-29T16:46:06.272Z,47.00
2023-04-29T16:47:06.235Z,47.19
2023-04-29T16:48:06.276Z,47.09
2023-04-29T16:49:06.219Z,47.00
2023-04-29T16:50:06.212Z,47.00
2023-04-29T16:51:06.225Z,46.90
2023-04-29T16:52:06.213Z,47.00
2023-04-29T16:53:06.243Z,47.00
2023-04-29T16:54:06.238Z,47.09
2023-04-29T16:55:06.221Z,47.09
2023-04-29T16:56:06.198Z,47.09
2023-04-29T16:57:06.250Z,47.19
2023-04-29T16:58:06.205Z,47.19
2023-04-29T16:59:06.222Z,47.38
2023-04-29T17:00:06.218Z,47.38
2023-04-29T17:01:06.191Z,47.19
2023-04-29T17:02:06.295Z,47.19
2023-04-29T17:03:06.283Z,47.19
2023-04-29T17:04:06.259Z,47.19
2023-04-29T17:05:06.177Z,47.09
2023-04-29T17:06:06.214Z,47.29
2023-04-29T17:07:06.177Z,47.09
2023-04-29T17:08:06.208Z,47.19
2023-04-29T17:09:06.180Z,47.09
2023-04-29T17:10:06.186Z,47.38
2023-04-29T17:11:06.167Z,47.09
2023-04-29T17:12:06.165Z,47.09
2023-04-29T17:13:06.154Z,47.29
2023-04-29T17:14:06.163Z,47.19
2023-04-29T17:15:06.157Z,47.19
2023-04-29T17:16:06.220Z,47.19
2023-04-29T17:17:06.178Z,47.29
2023-04-29T17:18:06.221Z,47.38
2023-04-29T17:19:06.209Z,47.29
2023-04-29T17:20:06.142Z,47.38
2023-04-29T17:21:06.159Z,47.38
2023-04-29T17:22:06.123Z,47.48
2023-04-29T17:23:06.128Z,47.29
2023-04-29T17:24:06.125Z,47.27
2023-04-29T17:25:06.120Z,47.29
2023-04-29T17:26:06.134Z,47.48
2023-04-29T17:27:06.119Z,47.48
2023-04-29T17:28:06.126Z,47.36
2023-04-29T17:29:06.117Z,47.45
2023-04-29T17:30:06.117Z,47.36
2023-04-29T17:31:06.135Z,47.45
2023-04-29T17:32:06.185Z,47.48
2023-04-29T17:33:06.221Z,47.27
2023-04-29T17:34:06.091Z,47.45
2023-04-29T17:35:06.091Z,47.27
2023-04-29T17:36:06.110Z,47.36
2023-04-29T17:37:06.096Z,47.45
2023-04-29T17:38:06.076Z,47.55
2023-04-29T17:39:06.076Z,47.55
2023-04-29T17:40:06.073Z,47.36
2023-04-29T17:41:06.078Z,47.55
2023-04-29T17:42:06.067Z,47.55
2023-04-29T17:43:06.060Z,47.45
2023-04-29T17:44:06.056Z,47.55
2023-04-29T17:45:06.076Z,47.45
2023-04-29T17:46:06.104Z,47.55
2023-04-29T17:47:06.088Z,47.45
2023-04-29T17:48:06.103Z,47.65
2023-04-29T17:49:06.063Z,47.55
2023-04-29T17:50:06.050Z,47.55
2023-04-29T17:51:06.044Z,47.55
2023-04-29T17:52:06.052Z,47.65
2023-04-29T17:53:06.048Z,47.55
2023-04-29T17:54:06.029Z,47.65
2023-04-29T17:55:06.026Z,47.65
2023-04-29T17:56:06.045Z,47.65
2023-04-29T17:57:06.034Z,47.75
2023-04-29T17:58:06.026Z,47.65
2023-04-29T17:59:06.038Z,47.55
2023-04-29T18:00:06.016Z,47.65
2023-04-29T18:01:06.120Z,47.55
2023-04-29T18:02:06.016Z,47.45
2023-04-29T18:03:06.102Z,47.55
2023-04-29T18:04:06.193Z,47.55
2023-04-29T18:05:06.001Z,47.65
2023-04-29T18:06:06.050Z,47.65
2023-04-29T18:07:05.993Z,47.63
2023-04-29T18:08:05.999Z,47.63
2023-04-29T18:09:06.000Z,47.72
2023-04-29T18:10:06.061Z,47.72
2023-04-29T18:11:05.970Z,47.72
2023-04-29T18:12:05.966Z,47.72
2023-04-29T18:13:05.977Z,47.63
2023-04-29T18:14:05.976Z,47.72
2023-04-29T18:15:05.980Z,47.82
2023-04-29T18:16:05.968Z,47.72
2023-04-29T18:17:06.087Z,47.72
2023-04-29T18:18:06.031Z,47.63
2023-04-29T18:19:05.992Z,47.82
2023-04-29T18:20:05.997Z,47.82
2023-04-29T18:21:05.950Z,47.82
2023-04-29T18:22:05.957Z,47.82
2023-04-29T18:23:05.952Z,47.72
2023-04-29T18:24:05.949Z,47.82
2023-04-29T18:25:05.962Z,47.82
2023-04-29T18:26:05.925Z,47.92
2023-04-29T18:27:05.931Z,47.82
2023-04-29T18:28:23.005Z,47.72
2023-04-29T18:29:05.928Z,47.92
2023-04-29T18:30:05.942Z,47.82
2023-04-29T18:31:05.949Z,47.92
2023-04-29T18:32:08.019Z,48.01
2023-04-29T18:34:38.432Z,47.82
2023-04-29T18:35:38.435Z,47.92
2023-04-29T18:36:38.420Z,47.92
2023-04-29T18:37:38.409Z,47.92
2023-04-29T18:38:38.427Z,47.92
2023-04-29T18:39:38.412Z,47.82
2023-04-29T18:40:38.407Z,48.01
2023-04-29T18:41:38.395Z,47.99
2023-04-29T18:42:38.392Z,47.80
2023-04-29T18:43:38.418Z,47.89
2023-04-29T18:44:38.397Z,47.92
2023-04-29T18:45:38.389Z,47.99
2023-04-29T18:46:38.431Z,47.89
2023-04-29T18:47:38.401Z,47.99
2023-04-29T18:48:38.411Z,47.89
2023-04-29T18:49:38.511Z,47.99
2023-04-29T18:50:38.370Z,47.89
2023-04-29T18:51:38.391Z,47.89
2023-04-29T18:52:38.388Z,48.08
2023-04-29T18:53:38.384Z,47.99
2023-04-29T18:54:38.381Z,47.99
2023-04-29T18:55:38.348Z,47.89
2023-04-29T18:56:40.275Z,47.99
2023-04-29T18:57:38.333Z,47.99
2023-04-29T18:58:38.343Z,47.99
2023-04-29T18:59:38.364Z,47.89
2023-04-29T19:00:38.336Z,47.89
2023-04-29T19:01:38.344Z,47.99
2023-04-29T19:02:38.365Z,47.99
2023-04-29T19:03:38.336Z,47.89
2023-04-29T19:04:38.386Z,48.08
2023-04-29T19:05:38.323Z,47.89
2023-04-29T19:06:38.367Z,47.99
2023-04-29T19:07:38.318Z,47.99
2023-04-29T19:08:38.297Z,47.99
2023-04-29T19:09:38.293Z,47.99
2023-04-29T19:10:38.322Z,48.18
2023-04-29T19:11:38.290Z,48.08
2023-04-29T19:12:38.299Z,47.99
2023-04-29T19:13:38.270Z,47.99
2023-04-29T19:14:38.292Z,47.99
2023-04-29T19:15:38.309Z,48.08
2023-04-29T19:16:38.287Z,48.08
2023-04-29T19:17:38.336Z,48.18
2023-04-29T19:18:38.251Z,47.99
2023-04-29T19:19:38.305Z,48.18
2023-04-29T19:20:38.262Z,47.99
2023-04-29T19:21:38.245Z,48.18
2023-04-29T19:22:38.251Z,48.18
2023-04-29T19:23:38.251Z,48.28
2023-04-29T19:24:38.265Z,48.28
2023-04-29T19:25:38.231Z,48.06
2023-04-29T19:26:40.146Z,48.16
2023-04-29T19:27:38.255Z,48.18
2023-04-29T19:28:38.215Z,48.28
2023-04-29T19:29:38.265Z,47.99
2023-04-29T19:30:38.229Z,48.06
2023-04-29T19:31:38.214Z,48.18
2023-04-29T19:32:38.231Z,48.16
2023-04-29T19:33:38.196Z,48.08
2023-04-29T19:34:38.233Z,48.16
2023-04-29T19:35:38.195Z,48.06
2023-04-29T19:36:38.216Z,48.16
2023-04-29T19:37:38.201Z,48.06
2023-04-29T19:38:38.378Z,48.06
2023-04-29T19:39:38.227Z,48.06
2023-04-29T19:40:38.192Z,47.97
2023-04-29T19:41:38.169Z,48.06
2023-04-29T19:42:38.169Z,48.16
2023-04-29T19:43:38.171Z,48.16
2023-04-29T19:44:38.196Z,48.25
2023-04-29T19:45:38.163Z,48.16
2023-04-29T19:46:38.302Z,48.16
2023-04-29T19:47:38.196Z,48.25